sensor_id;sensor_type;location;lat;lon;timestamp;P1;durP1;ratioP1;P2;durP2;ratioP2
9771;SDS011;4925;52.588;13.370;2022-09-09T00:04:03;4.67;;;4.27;;
9771;SDS011;4925;52.588;13.370;2022-09-09T00:07:01;5.00;;;4.60;;
9771;SDS011;4925;52.588;13.370;2022-09-09T00:09:57;6.30;;;4.67;;
9771;SDS011;4925;52.588;13.370;2022-09-09T00:12:41;4.43;;;4.03;;
9771;SDS011;4925;52.588;13.370;2022-09-09T00:15:22;9.70;;;5.20;;
9771;SDS011;4925;52.588;13.370;2022-09-09T00:17:56;5.07;;;4.67;;
9771;SDS011;4925;52.588;13.370;2022-09-09T00:28:27;5.90;;;5.33;;
9771;SDS011;4925;52.588;13.370;2022-09-09T00:30:59;5.73;;;5.30;;
9771;SDS011;4925;52.588;13.370;2022-09-09T00:33:32;6.40;;;5.80;;
9771;SDS011;4925;52.588;13.370;2022-09-09T00:36:00;8.30;;;5.93;;
9771;SDS011;4925;52.588;13.370;2022-09-09T00:38:28;6.03;;;5.53;;
9771;SDS011;4925;52.588;13.370;2022-09-09T00:43:57;6.60;;;6.00;;
9771;SDS011;4925;52.588;13.370;2022-09-09T00:57:25;6.43;;;5.80;;
9771;SDS011;4925;52.588;13.370;2022-09-09T01:02:39;7.13;;;6.53;;
9771;SDS011;4925;52.588;13.370;2022-09-09T01:05:30;6.33;;;5.73;;
9771;SDS011;4925;52.588;13.370;2022-09-09T01:08:00;7.20;;;6.60;;
9771;SDS011;4925;52.588;13.370;2022-09-09T01:13:34;7.17;;;6.50;;
9771;SDS011;4925;52.588;13.370;2022-09-09T01:16:01;7.70;;;6.93;;
9771;SDS011;4925;52.588;13.370;2022-09-09T01:18:34;9.73;;;6.90;;
9771;SDS011;4925;52.588;13.370;2022-09-09T01:24:20;7.63;;;6.90;;
9771;SDS011;4925;52.588;13.370;2022-09-09T01:27:05;12.47;;;6.80;;
9771;SDS011;4925;52.588;13.370;2022-09-09T01:29:32;7.60;;;6.80;;
9771;SDS011;4925;52.588;13.370;2022-09-09T01:32:02;7.10;;;6.50;;
9771;SDS011;4925;52.588;13.370;2022-09-09T01:34:48;7.43;;;6.07;;
9771;SDS011;4925;52.588;13.370;2022-09-09T01:37:15;7.20;;;6.47;;
9771;SDS011;4925;52.588;13.370;2022-09-09T01:39:41;7.00;;;6.40;;
9771;SDS011;4925;52.588;13.370;2022-09-09T01:42:09;6.63;;;6.03;;
9771;SDS011;4925;52.588;13.370;2022-09-09T01:44:38;7.33;;;6.57;;
9771;SDS011;4925;52.588;13.370;2022-09-09T01:47:04;7.47;;;6.80;;
9771;SDS011;4925;52.588;13.370;2022-09-09T01:49:30;6.10;;;5.50;;
9771;SDS011;4925;52.588;13.370;2022-09-09T01:51:57;9.03;;;7.27;;
9771;SDS011;4925;52.588;13.370;2022-09-09T01:54:24;6.27;;;5.67;;
9771;SDS011;4925;52.588;13.370;2022-09-09T01:56:57;5.93;;;5.43;;
9771;SDS011;4925;52.588;13.370;2022-09-09T01:59:48;6.53;;;5.97;;
9771;SDS011;4925;52.588;13.370;2022-09-09T02:02:26;8.13;;;6.50;;
9771;SDS011;4925;52.588;13.370;2022-09-09T02:05:06;7.13;;;6.03;;
9771;SDS011;4925;52.588;13.370;2022-09-09T02:08:12;6.80;;;6.20;;
9771;SDS011;4925;52.588;13.370;2022-09-09T02:10:58;6.53;;;5.80;;
9771;SDS011;4925;52.588;13.370;2022-09-09T02:13:28;6.67;;;6.07;;
9771;SDS011;4925;52.588;13.370;2022-09-09T02:16:18;7.17;;;6.13;;
9771;SDS011;4925;52.588;13.370;2022-09-09T02:21:27;6.63;;;5.93;;
9771;SDS011;4925;52.588;13.370;2022-09-09T02:23:55;7.80;;;6.40;;
9771;SDS011;4925;52.588;13.370;2022-09-09T02:26:24;6.00;;;5.50;;
9771;SDS011;4925;52.588;13.370;2022-09-09T02:28:52;6.47;;;5.87;;
9771;SDS011;4925;52.588;13.370;2022-09-09T02:31:22;6.87;;;6.27;;
9771;SDS011;4925;52.588;13.370;2022-09-09T02:33:51;6.80;;;6.20;;
9771;SDS011;4925;52.588;13.370;2022-09-09T02:36:23;6.43;;;5.83;;
9771;SDS011;4925;52.588;13.370;2022-09-09T02:38:51;7.67;;;6.87;;
9771;SDS011;4925;52.588;13.370;2022-09-09T02:41:30;6.30;;;5.80;;
9771;SDS011;4925;52.588;13.370;2022-09-09T02:44:01;5.90;;;5.40;;
9771;SDS011;4925;52.588;13.370;2022-09-09T02:49:15;7.33;;;6.63;;
9771;SDS011;4925;52.588;13.370;2022-09-09T02:52:00;7.23;;;6.20;;
9771;SDS011;4925;52.588;13.370;2022-09-09T02:54:34;7.23;;;6.53;;
9771;SDS011;4925;52.588;13.370;2022-09-09T02:59:46;6.90;;;5.60;;
9771;SDS011;4925;52.588;13.370;2022-09-09T03:02:13;7.73;;;6.03;;
9771;SDS011;4925;52.588;13.370;2022-09-09T03:04:39;7.37;;;6.60;;
9771;SDS011;4925;52.588;13.370;2022-09-09T03:07:05;8.40;;;6.50;;
9771;SDS011;4925;52.588;13.370;2022-09-09T03:09:30;7.50;;;6.80;;
9771;SDS011;4925;52.588;13.370;2022-09-09T03:11:57;9.10;;;6.73;;
9771;SDS011;4925;52.588;13.370;2022-09-09T03:14:23;7.83;;;5.97;;
9771;SDS011;4925;52.588;13.370;2022-09-09T03:16:52;7.43;;;6.73;;
9771;SDS011;4925;52.588;13.370;2022-09-09T03:19:19;7.60;;;6.30;;
9771;SDS011;4925;52.588;13.370;2022-09-09T03:21:45;7.40;;;6.10;;
9771;SDS011;4925;52.588;13.370;2022-09-09T03:24:12;6.70;;;6.10;;
9771;SDS011;4925;52.588;13.370;2022-09-09T03:26:39;7.47;;;6.50;;
9771;SDS011;4925;52.588;13.370;2022-09-09T03:29:05;10.87;;;6.73;;
9771;SDS011;4925;52.588;13.370;2022-09-09T03:31:32;7.87;;;6.10;;
9771;SDS011;4925;52.588;13.370;2022-09-09T03:33:58;7.00;;;6.30;;
9771;SDS011;4925;52.588;13.370;2022-09-09T03:36:24;8.30;;;6.27;;
9771;SDS011;4925;52.588;13.370;2022-09-09T03:38:54;7.70;;;6.57;;
9771;SDS011;4925;52.588;13.370;2022-09-09T03:41:20;7.27;;;6.30;;
9771;SDS011;4925;52.588;13.370;2022-09-09T03:43:48;7.23;;;6.47;;
9771;SDS011;4925;52.588;13.370;2022-09-09T03:46:34;7.20;;;5.70;;
9771;SDS011;4925;52.588;13.370;2022-09-09T03:48:59;7.17;;;6.07;;
9771;SDS011;4925;52.588;13.370;2022-09-09T03:51:26;8.10;;;6.17;;
9771;SDS011;4925;52.588;13.370;2022-09-09T03:53:51;6.27;;;5.43;;
9771;SDS011;4925;52.588;13.370;2022-09-09T03:56:23;8.93;;;6.07;;
9771;SDS011;4925;52.588;13.370;2022-09-09T03:58:48;6.77;;;6.07;;
9771;SDS011;4925;52.588;13.370;2022-09-09T04:01:14;10.03;;;5.57;;
9771;SDS011;4925;52.588;13.370;2022-09-09T04:03:41;9.50;;;6.93;;
9771;SDS011;4925;52.588;13.370;2022-09-09T04:06:07;10.27;;;7.27;;
9771;SDS011;4925;52.588;13.370;2022-09-09T04:08:34;6.67;;;5.93;;
9771;SDS011;4925;52.588;13.370;2022-09-09T04:11:01;6.77;;;6.07;;
9771;SDS011;4925;52.588;13.370;2022-09-09T04:13:30;7.20;;;6.00;;
9771;SDS011;4925;52.588;13.370;2022-09-09T04:15:59;9.20;;;5.90;;
9771;SDS011;4925;52.588;13.370;2022-09-09T04:18:26;7.17;;;6.47;;
9771;SDS011;4925;52.588;13.370;2022-09-09T04:20:53;8.03;;;6.43;;
9771;SDS011;4925;52.588;13.370;2022-09-09T04:23:21;7.47;;;6.67;;
9771;SDS011;4925;52.588;13.370;2022-09-09T04:25:47;8.57;;;6.50;;
9771;SDS011;4925;52.588;13.370;2022-09-09T04:28:14;9.07;;;7.50;;
9771;SDS011;4925;52.588;13.370;2022-09-09T04:30:41;9.30;;;6.70;;
9771;SDS011;4925;52.588;13.370;2022-09-09T04:33:07;7.17;;;6.23;;
9771;SDS011;4925;52.588;13.370;2022-09-09T04:35:34;7.43;;;6.67;;
9771;SDS011;4925;52.588;13.370;2022-09-09T04:38:01;11.23;;;6.60;;
9771;SDS011;4925;52.588;13.370;2022-09-09T04:40:31;6.33;;;5.70;;
9771;SDS011;4925;52.588;13.370;2022-09-09T04:43:00;8.43;;;6.30;;
9771;SDS011;4925;52.588;13.370;2022-09-09T04:45:28;8.00;;;5.80;;
9771;SDS011;4925;52.588;13.370;2022-09-09T04:47:54;7.10;;;6.40;;
9771;SDS011;4925;52.588;13.370;2022-09-09T04:50:20;6.43;;;5.83;;
9771;SDS011;4925;52.588;13.370;2022-09-09T04:52:45;6.77;;;5.77;;
9771;SDS011;4925;52.588;13.370;2022-09-09T04:55:11;7.77;;;6.27;;
9771;SDS011;4925;52.588;13.370;2022-09-09T04:57:37;8.53;;;7.03;;
9771;SDS011;4925;52.588;13.370;2022-09-09T05:00:04;6.50;;;5.90;;
9771;SDS011;4925;52.588;13.370;2022-09-09T05:02:31;10.07;;;6.60;;
9771;SDS011;4925;52.588;13.370;2022-09-09T05:04:57;8.50;;;6.20;;
9771;SDS011;4925;52.588;13.370;2022-09-09T05:07:23;7.57;;;6.60;;
9771;SDS011;4925;52.588;13.370;2022-09-09T05:09:49;8.60;;;6.23;;
9771;SDS011;4925;52.588;13.370;2022-09-09T05:12:15;7.40;;;5.93;;
9771;SDS011;4925;52.588;13.370;2022-09-09T05:14:41;7.10;;;6.03;;
9771;SDS011;4925;52.588;13.370;2022-09-09T05:17:07;8.70;;;6.60;;
9771;SDS011;4925;52.588;13.370;2022-09-09T05:19:33;6.93;;;6.20;;
9771;SDS011;4925;52.588;13.370;2022-09-09T05:21:59;7.30;;;6.20;;
9771;SDS011;4925;52.588;13.370;2022-09-09T05:24:26;6.60;;;6.00;;
9771;SDS011;4925;52.588;13.370;2022-09-09T05:26:51;7.57;;;4.93;;
9771;SDS011;4925;52.588;13.370;2022-09-09T05:29:17;6.63;;;5.93;;
9771;SDS011;4925;52.588;13.370;2022-09-09T05:31:44;8.27;;;6.50;;
9771;SDS011;4925;52.588;13.370;2022-09-09T05:34:10;8.90;;;5.57;;
9771;SDS011;4925;52.588;13.370;2022-09-09T05:36:36;7.23;;;5.33;;
9771;SDS011;4925;52.588;13.370;2022-09-09T05:39:02;5.63;;;5.13;;
9771;SDS011;4925;52.588;13.370;2022-09-09T05:41:28;6.63;;;5.17;;
9771;SDS011;4925;52.588;13.370;2022-09-09T05:43:54;5.77;;;5.17;;
9771;SDS011;4925;52.588;13.370;2022-09-09T05:46:20;5.67;;;4.70;;
9771;SDS011;4925;52.588;13.370;2022-09-09T05:48:47;6.03;;;4.70;;
9771;SDS011;4925;52.588;13.370;2022-09-09T05:51:19;6.70;;;4.63;;
9771;SDS011;4925;52.588;13.370;2022-09-09T05:53:47;5.23;;;4.50;;
9771;SDS011;4925;52.588;13.370;2022-09-09T05:56:17;7.43;;;4.33;;
9771;SDS011;4925;52.588;13.370;2022-09-09T05:58:49;7.70;;;5.13;;
9771;SDS011;4925;52.588;13.370;2022-09-09T06:01:16;5.43;;;4.63;;
9771;SDS011;4925;52.588;13.370;2022-09-09T06:03:43;4.73;;;4.33;;
9771;SDS011;4925;52.588;13.370;2022-09-09T06:06:11;7.03;;;4.40;;
9771;SDS011;4925;52.588;13.370;2022-09-09T06:08:40;5.23;;;4.80;;
9771;SDS011;4925;52.588;13.370;2022-09-09T06:11:30;6.37;;;4.67;;
9771;SDS011;4925;52.588;13.370;2022-09-09T06:13:59;6.23;;;4.83;;
9771;SDS011;4925;52.588;13.370;2022-09-09T06:16:26;6.10;;;4.50;;
9771;SDS011;4925;52.588;13.370;2022-09-09T06:18:53;4.63;;;4.23;;
9771;SDS011;4925;52.588;13.370;2022-09-09T06:21:23;5.97;;;4.37;;
9771;SDS011;4925;52.588;13.370;2022-09-09T06:23:50;5.47;;;4.30;;
9771;SDS011;4925;52.588;13.370;2022-09-09T06:28:46;7.47;;;3.80;;
9771;SDS011;4925;52.588;13.370;2022-09-09T06:31:13;4.43;;;4.07;;
9771;SDS011;4925;52.588;13.370;2022-09-09T06:33:46;8.10;;;3.77;;
9771;SDS011;4925;52.588;13.370;2022-09-09T06:36:12;6.70;;;4.17;;
9771;SDS011;4925;52.588;13.370;2022-09-09T06:38:40;5.63;;;3.63;;
9771;SDS011;4925;52.588;13.370;2022-09-09T06:41:07;9.60;;;4.23;;
9771;SDS011;4925;52.588;13.370;2022-09-09T06:43:35;5.10;;;3.90;;
9771;SDS011;4925;52.588;13.370;2022-09-09T06:46:11;7.17;;;3.77;;
9771;SDS011;4925;52.588;13.370;2022-09-09T06:48:38;7.17;;;3.73;;
9771;SDS011;4925;52.588;13.370;2022-09-09T06:51:11;6.23;;;3.33;;
9771;SDS011;4925;52.588;13.370;2022-09-09T06:53:42;7.63;;;3.33;;
9771;SDS011;4925;52.588;13.370;2022-09-09T06:58:35;6.23;;;3.40;;
9771;SDS011;4925;52.588;13.370;2022-09-09T07:01:09;8.50;;;3.53;;
9771;SDS011;4925;52.588;13.370;2022-09-09T07:03:37;5.03;;;3.30;;
9771;SDS011;4925;52.588;13.370;2022-09-09T07:06:03;6.73;;;3.07;;
9771;SDS011;4925;52.588;13.370;2022-09-09T07:08:30;2.80;;;2.60;;
9771;SDS011;4925;52.588;13.370;2022-09-09T07:11:02;5.43;;;2.77;;
9771;SDS011;4925;52.588;13.370;2022-09-09T07:13:29;9.50;;;3.00;;
9771;SDS011;4925;52.588;13.370;2022-09-09T07:16:02;4.33;;;3.17;;
9771;SDS011;4925;52.588;13.370;2022-09-09T07:18:36;5.93;;;2.40;;
9771;SDS011;4925;52.588;13.370;2022-09-09T07:21:02;4.27;;;2.43;;
9771;SDS011;4925;52.588;13.370;2022-09-09T07:23:29;5.07;;;2.73;;
9771;SDS011;4925;52.588;13.370;2022-09-09T07:25:56;4.17;;;2.67;;
9771;SDS011;4925;52.588;13.370;2022-09-09T07:28:22;4.53;;;2.23;;
9771;SDS011;4925;52.588;13.370;2022-09-09T07:30:55;2.87;;;1.70;;
9771;SDS011;4925;52.588;13.370;2022-09-09T07:33:27;3.63;;;1.93;;
9771;SDS011;4925;52.588;13.370;2022-09-09T07:36:02;3.10;;;2.17;;
9771;SDS011;4925;52.588;13.370;2022-09-09T07:38:30;3.43;;;1.83;;
9771;SDS011;4925;52.588;13.370;2022-09-09T07:41:06;4.50;;;1.98;;
9771;SDS011;4925;52.588;13.370;2022-09-09T07:43:37;5.32;;;2.63;;
9771;SDS011;4925;52.588;13.370;2022-09-09T07:46:04;4.15;;;2.13;;
9771;SDS011;4925;52.588;13.370;2022-09-09T07:48:30;2.03;;;1.80;;
9771;SDS011;4925;52.588;13.370;2022-09-09T07:51:31;5.25;;;1.90;;
9771;SDS011;4925;52.588;13.370;2022-09-09T07:53:54;2.55;;;1.70;;
9771;SDS011;4925;52.588;13.370;2022-09-09T07:56:22;4.70;;;1.70;;
9771;SDS011;4925;52.588;13.370;2022-09-09T07:58:49;4.78;;;1.98;;
9771;SDS011;4925;52.588;13.370;2022-09-09T08:01:22;5.60;;;1.88;;
9771;SDS011;4925;52.588;13.370;2022-09-09T08:04:03;3.97;;;1.70;;
9771;SDS011;4925;52.588;13.370;2022-09-09T08:06:33;4.45;;;2.03;;
9771;SDS011;4925;52.588;13.370;2022-09-09T08:09:02;2.20;;;1.50;;
9771;SDS011;4925;52.588;13.370;2022-09-09T08:11:28;5.10;;;1.90;;
9771;SDS011;4925;52.588;13.370;2022-09-09T08:13:54;10.15;;;1.70;;
9771;SDS011;4925;52.588;13.370;2022-09-09T08:16:24;5.78;;;1.60;;
9771;SDS011;4925;52.588;13.370;2022-09-09T08:18:52;3.88;;;1.58;;
9771;SDS011;4925;52.588;13.370;2022-09-09T08:21:20;1.92;;;1.70;;
9771;SDS011;4925;52.588;13.370;2022-09-09T08:23:50;5.88;;;1.80;;
9771;SDS011;4925;52.588;13.370;2022-09-09T08:26:18;3.28;;;1.50;;
9771;SDS011;4925;52.588;13.370;2022-09-09T08:28:47;3.63;;;1.50;;
9771;SDS011;4925;52.588;13.370;2022-09-09T08:31:17;7.72;;;2.25;;
9771;SDS011;4925;52.588;13.370;2022-09-09T08:33:50;1.40;;;1.30;;
9771;SDS011;4925;52.588;13.370;2022-09-09T08:36:18;3.38;;;1.70;;
9771;SDS011;4925;52.588;13.370;2022-09-09T08:38:50;2.90;;;1.40;;
9771;SDS011;4925;52.588;13.370;2022-09-09T08:46:51;27.13;;;18.60;;
9771;SDS011;4925;52.588;13.370;2022-09-09T08:54:56;3.20;;;1.80;;
9771;SDS011;4925;52.588;13.370;2022-09-09T08:57:46;3.67;;;1.48;;
9771;SDS011;4925;52.588;13.370;2022-09-09T09:00:12;4.18;;;1.83;;
9771;SDS011;4925;52.588;13.370;2022-09-09T09:05:42;3.35;;;1.33;;
9771;SDS011;4925;52.588;13.370;2022-09-09T09:08:17;4.35;;;1.25;;
9771;SDS011;4925;52.588;13.370;2022-09-09T09:10:58;2.50;;;1.33;;
9771;SDS011;4925;52.588;13.370;2022-09-09T09:13:31;1.63;;;0.98;;
9771;SDS011;4925;52.588;13.370;2022-09-09T09:16:22;3.42;;;1.60;;
9771;SDS011;4925;52.588;13.370;2022-09-09T09:18:51;2.38;;;1.60;;
9771;SDS011;4925;52.588;13.370;2022-09-09T09:21:39;6.40;;;2.17;;
9771;SDS011;4925;52.588;13.370;2022-09-09T09:24:16;6.82;;;1.98;;
9771;SDS011;4925;52.588;13.370;2022-09-09T09:26:57;2.58;;;1.85;;
9771;SDS011;4925;52.588;13.370;2022-09-09T09:29:26;6.93;;;1.63;;
9771;SDS011;4925;52.588;13.370;2022-09-09T09:31:52;3.97;;;1.88;;
9771;SDS011;4925;52.588;13.370;2022-09-09T09:34:20;3.35;;;1.20;;
9771;SDS011;4925;52.588;13.370;2022-09-09T09:36:53;5.68;;;1.65;;
9771;SDS011;4925;52.588;13.370;2022-09-09T09:39:26;4.47;;;1.90;;
9771;SDS011;4925;52.588;13.370;2022-09-09T09:41:53;5.28;;;2.10;;
9771;SDS011;4925;52.588;13.370;2022-09-09T09:44:24;2.95;;;1.40;;
9771;SDS011;4925;52.588;13.370;2022-09-09T09:46:52;7.32;;;2.28;;
9771;SDS011;4925;52.588;13.370;2022-09-09T09:49:18;1.88;;;1.77;;
9771;SDS011;4925;52.588;13.370;2022-09-09T09:51:44;4.60;;;1.67;;
9771;SDS011;4925;52.588;13.370;2022-09-09T09:56:40;1.63;;;1.10;;
9771;SDS011;4925;52.588;13.370;2022-09-09T09:59:59;5.50;;;1.77;;
9771;SDS011;4925;52.588;13.370;2022-09-09T10:01:53;8.68;;;2.17;;
9771;SDS011;4925;52.588;13.370;2022-09-09T10:04:22;2.25;;;1.20;;
9771;SDS011;4925;52.588;13.370;2022-09-09T10:06:48;2.97;;;1.27;;
9771;SDS011;4925;52.588;13.370;2022-09-09T10:09:28;3.00;;;1.27;;
9771;SDS011;4925;52.588;13.370;2022-09-09T10:15:02;1.10;;;0.98;;
9771;SDS011;4925;52.588;13.370;2022-09-09T10:23:52;4.13;;;1.98;;
9771;SDS011;4925;52.588;13.370;2022-09-09T10:26:44;4.07;;;1.50;;
9771;SDS011;4925;52.588;13.370;2022-09-09T10:34:57;3.20;;;1.10;;
9771;SDS011;4925;52.588;13.370;2022-09-09T10:46:06;2.50;;;1.55;;
9771;SDS011;4925;52.588;13.370;2022-09-09T10:54:48;1.20;;;1.10;;
9771;SDS011;4925;52.588;13.370;2022-09-09T10:57:42;3.10;;;1.30;;
9771;SDS011;4925;52.588;13.370;2022-09-09T11:00:15;2.15;;;1.30;;
9771;SDS011;4925;52.588;13.370;2022-09-09T11:02:44;3.80;;;1.33;;
9771;SDS011;4925;52.588;13.370;2022-09-09T11:08:13;1.50;;;1.23;;
9771;SDS011;4925;52.588;13.370;2022-09-09T11:22:27;4.40;;;1.40;;
9771;SDS011;4925;52.588;13.370;2022-09-09T11:25:16;1.33;;;1.23;;
9771;SDS011;4925;52.588;13.370;2022-09-09T11:27:54;4.32;;;1.10;;
9771;SDS011;4925;52.588;13.370;2022-09-09T11:36:25;2.08;;;1.10;;
9771;SDS011;4925;52.588;13.370;2022-09-09T11:41:49;3.50;;;1.38;;
9771;SDS011;4925;52.588;13.370;2022-09-09T11:44:19;2.10;;;1.20;;
9771;SDS011;4925;52.588;13.370;2022-09-09T11:46:53;2.13;;;1.27;;
9771;SDS011;4925;52.588;13.370;2022-09-09T11:49:26;4.22;;;1.50;;
9771;SDS011;4925;52.588;13.370;2022-09-09T11:51:52;3.20;;;1.13;;
9771;SDS011;4925;52.588;13.370;2022-09-09T11:54:29;1.80;;;1.10;;
9771;SDS011;4925;52.588;13.370;2022-09-09T11:56:57;2.45;;;1.42;;
9771;SDS011;4925;52.588;13.370;2022-09-09T11:59:24;3.22;;;1.00;;
9771;SDS011;4925;52.588;13.370;2022-09-09T12:04:53;4.90;;;1.52;;
9771;SDS011;4925;52.588;13.370;2022-09-09T12:12:32;0.60;;;0.60;;
9771;SDS011;4925;52.588;13.370;2022-09-09T12:17:31;1.25;;;0.80;;
9771;SDS011;4925;52.588;13.370;2022-09-09T12:20:14;0.85;;;0.85;;
9771;SDS011;4925;52.588;13.370;2022-09-09T12:33:35;2.20;;;1.20;;
9771;SDS011;4925;52.588;13.370;2022-09-09T12:36:02;5.95;;;1.42;;
9771;SDS011;4925;52.588;13.370;2022-09-09T12:40:57;3.35;;;1.20;;
9771;SDS011;4925;52.588;13.370;2022-09-09T12:43:24;6.05;;;1.52;;
9771;SDS011;4925;52.588;13.370;2022-09-09T12:45:51;1.85;;;1.05;;
9771;SDS011;4925;52.588;13.370;2022-09-09T12:48:49;6.22;;;1.40;;
9771;SDS011;4925;52.588;13.370;2022-09-09T12:51:18;2.03;;;1.15;;
9771;SDS011;4925;52.588;13.370;2022-09-09T12:53:55;3.40;;;1.40;;
9771;SDS011;4925;52.588;13.370;2022-09-09T12:56:27;2.60;;;1.35;;
9771;SDS011;4925;52.588;13.370;2022-09-09T12:58:56;7.78;;;1.05;;
9771;SDS011;4925;52.588;13.370;2022-09-09T13:03:50;2.80;;;0.90;;
9771;SDS011;4925;52.588;13.370;2022-09-09T13:06:19;1.98;;;0.98;;
9771;SDS011;4925;52.588;13.370;2022-09-09T13:08:48;5.60;;;1.25;;
9771;SDS011;4925;52.588;13.370;2022-09-09T13:11:20;6.03;;;1.17;;
9771;SDS011;4925;52.588;13.370;2022-09-09T13:13:54;3.53;;;0.98;;
9771;SDS011;4925;52.588;13.370;2022-09-09T13:16:28;4.45;;;1.48;;
9771;SDS011;4925;52.588;13.370;2022-09-09T13:19:02;2.03;;;1.00;;
9771;SDS011;4925;52.588;13.370;2022-09-09T13:21:41;2.88;;;1.40;;
9771;SDS011;4925;52.588;13.370;2022-09-09T13:24:27;3.60;;;1.33;;
9771;SDS011;4925;52.588;13.370;2022-09-09T13:27:00;3.05;;;0.90;;
9771;SDS011;4925;52.588;13.370;2022-09-09T13:29:50;3.38;;;1.23;;
9771;SDS011;4925;52.588;13.370;2022-09-09T13:32:20;1.98;;;1.38;;
9771;SDS011;4925;52.588;13.370;2022-09-09T13:35:22;4.50;;;1.63;;
9771;SDS011;4925;52.588;13.370;2022-09-09T13:37:48;1.27;;;1.13;;
9771;SDS011;4925;52.588;13.370;2022-09-09T13:40:18;4.43;;;2.35;;
9771;SDS011;4925;52.588;13.370;2022-09-09T13:42:46;2.53;;;1.33;;
9771;SDS011;4925;52.588;13.370;2022-09-09T13:45:19;7.13;;;1.92;;
9771;SDS011;4925;52.588;13.370;2022-09-09T13:47:46;2.92;;;1.50;;
9771;SDS011;4925;52.588;13.370;2022-09-09T13:50:20;6.50;;;1.55;;
9771;SDS011;4925;52.588;13.370;2022-09-09T13:52:48;5.68;;;1.10;;
9771;SDS011;4925;52.588;13.370;2022-09-09T13:55:16;1.92;;;1.00;;
9771;SDS011;4925;52.588;13.370;2022-09-09T13:57:56;2.40;;;1.55;;
9771;SDS011;4925;52.588;13.370;2022-09-09T14:00:23;4.47;;;1.92;;
9771;SDS011;4925;52.588;13.370;2022-09-09T14:02:49;3.75;;;1.70;;
9771;SDS011;4925;52.588;13.370;2022-09-09T14:05:16;1.80;;;1.10;;
9771;SDS011;4925;52.588;13.370;2022-09-09T14:07:44;2.92;;;1.17;;
9771;SDS011;4925;52.588;13.370;2022-09-09T14:10:10;2.75;;;1.58;;
9771;SDS011;4925;52.588;13.370;2022-09-09T14:12:37;1.85;;;1.10;;
9771;SDS011;4925;52.588;13.370;2022-09-09T14:15:04;2.28;;;1.20;;
9771;SDS011;4925;52.588;13.370;2022-09-09T14:17:30;1.50;;;1.10;;
9771;SDS011;4925;52.588;13.370;2022-09-09T14:19:59;1.58;;;1.00;;
9771;SDS011;4925;52.588;13.370;2022-09-09T14:22:25;1.65;;;1.00;;
9771;SDS011;4925;52.588;13.370;2022-09-09T14:24:50;3.00;;;1.23;;
9771;SDS011;4925;52.588;13.370;2022-09-09T14:27:16;1.98;;;1.20;;
9771;SDS011;4925;52.588;13.370;2022-09-09T14:29:42;1.48;;;1.10;;
9771;SDS011;4925;52.588;13.370;2022-09-09T14:32:09;2.60;;;1.23;;
9771;SDS011;4925;52.588;13.370;2022-09-09T14:34:35;3.97;;;1.63;;
9771;SDS011;4925;52.588;13.370;2022-09-09T14:37:00;3.38;;;0.90;;
9771;SDS011;4925;52.588;13.370;2022-09-09T14:39:26;3.65;;;1.25;;
9771;SDS011;4925;52.588;13.370;2022-09-09T14:41:52;5.68;;;1.08;;
9771;SDS011;4925;52.588;13.370;2022-09-09T14:44:17;3.78;;;1.40;;
9771;SDS011;4925;52.588;13.370;2022-09-09T14:46:43;2.20;;;1.20;;
9771;SDS011;4925;52.588;13.370;2022-09-09T14:49:09;3.78;;;1.40;;
9771;SDS011;4925;52.588;13.370;2022-09-09T14:51:37;3.30;;;1.08;;
9771;SDS011;4925;52.588;13.370;2022-09-09T14:54:03;2.08;;;1.08;;
9771;SDS011;4925;52.588;13.370;2022-09-09T14:56:30;6.82;;;1.27;;
9771;SDS011;4925;52.588;13.370;2022-09-09T14:58:58;2.00;;;1.20;;
9771;SDS011;4925;52.588;13.370;2022-09-09T15:01:25;1.20;;;1.10;;
9771;SDS011;4925;52.588;13.370;2022-09-09T15:03:56;0.95;;;0.90;;
9771;SDS011;4925;52.588;13.370;2022-09-09T15:06:24;2.08;;;0.90;;
9771;SDS011;4925;52.588;13.370;2022-09-09T15:08:51;2.78;;;1.40;;
9771;SDS011;4925;52.588;13.370;2022-09-09T15:11:18;3.80;;;1.65;;
9771;SDS011;4925;52.588;13.370;2022-09-09T15:13:45;5.15;;;1.60;;
9771;SDS011;4925;52.588;13.370;2022-09-09T15:16:15;5.22;;;1.45;;
9771;SDS011;4925;52.588;13.370;2022-09-09T15:18:42;3.08;;;1.30;;
9771;SDS011;4925;52.588;13.370;2022-09-09T15:21:14;1.65;;;1.10;;
9771;SDS011;4925;52.588;13.370;2022-09-09T15:23:41;2.45;;;1.23;;
9771;SDS011;4925;52.588;13.370;2022-09-09T15:26:07;3.25;;;1.33;;
9771;SDS011;4925;52.588;13.370;2022-09-09T15:28:34;1.50;;;1.08;;
9771;SDS011;4925;52.588;13.370;2022-09-09T15:31:09;3.00;;;1.27;;
9771;SDS011;4925;52.588;13.370;2022-09-09T15:33:52;2.15;;;1.10;;
9771;SDS011;4925;52.588;13.370;2022-09-09T15:36:25;4.95;;;1.10;;
9771;SDS011;4925;52.588;13.370;2022-09-09T15:38:53;2.33;;;1.25;;
9771;SDS011;4925;52.588;13.370;2022-09-09T15:41:19;5.22;;;1.77;;
9771;SDS011;4925;52.588;13.370;2022-09-09T15:43:47;2.25;;;0.95;;
9771;SDS011;4925;52.588;13.370;2022-09-09T15:46:25;1.45;;;1.20;;
9771;SDS011;4925;52.588;13.370;2022-09-09T15:51:43;7.40;;;1.58;;
9771;SDS011;4925;52.588;13.370;2022-09-09T15:54:11;3.75;;;1.25;;
9771;SDS011;4925;52.588;13.370;2022-09-09T15:56:42;4.25;;;1.50;;
9771;SDS011;4925;52.588;13.370;2022-09-09T15:59:09;2.22;;;1.02;;
9771;SDS011;4925;52.588;13.370;2022-09-09T16:01:34;4.90;;;1.77;;
9771;SDS011;4925;52.588;13.370;2022-09-09T16:04:01;4.20;;;1.42;;
9771;SDS011;4925;52.588;13.370;2022-09-09T16:06:27;2.67;;;1.10;;
9771;SDS011;4925;52.588;13.370;2022-09-09T16:08:54;3.30;;;1.05;;
9771;SDS011;4925;52.588;13.370;2022-09-09T16:11:22;1.60;;;1.20;;
9771;SDS011;4925;52.588;13.370;2022-09-09T16:13:50;3.15;;;1.17;;
9771;SDS011;4925;52.588;13.370;2022-09-09T16:16:17;3.25;;;1.17;;
9771;SDS011;4925;52.588;13.370;2022-09-09T16:18:47;2.42;;;1.17;;
9771;SDS011;4925;52.588;13.370;2022-09-09T16:21:15;2.15;;;1.20;;
9771;SDS011;4925;52.588;13.370;2022-09-09T16:23:43;4.32;;;1.13;;
9771;SDS011;4925;52.588;13.370;2022-09-09T16:26:13;2.35;;;1.20;;
9771;SDS011;4925;52.588;13.370;2022-09-09T16:28:40;3.65;;;1.40;;
9771;SDS011;4925;52.588;13.370;2022-09-09T16:31:07;4.40;;;1.48;;
9771;SDS011;4925;52.588;13.370;2022-09-09T16:33:35;4.72;;;1.40;;
9771;SDS011;4925;52.588;13.370;2022-09-09T16:36:05;1.98;;;1.23;;
9771;SDS011;4925;52.588;13.370;2022-09-09T16:38:35;2.78;;;1.00;;
9771;SDS011;4925;52.588;13.370;2022-09-09T16:41:02;3.58;;;1.33;;
9771;SDS011;4925;52.588;13.370;2022-09-09T16:43:30;2.55;;;1.23;;
9771;SDS011;4925;52.588;13.370;2022-09-09T16:45:57;2.80;;;1.45;;
9771;SDS011;4925;52.588;13.370;2022-09-09T16:48:25;2.33;;;1.25;;
9771;SDS011;4925;52.588;13.370;2022-09-09T16:51:04;2.90;;;1.88;;
9771;SDS011;4925;52.588;13.370;2022-09-09T16:53:31;4.97;;;1.65;;
9771;SDS011;4925;52.588;13.370;2022-09-09T16:55:57;1.50;;;1.30;;
9771;SDS011;4925;52.588;13.370;2022-09-09T16:58:22;3.85;;;1.58;;
9771;SDS011;4925;52.588;13.370;2022-09-09T17:00:48;2.70;;;1.10;;
9771;SDS011;4925;52.588;13.370;2022-09-09T17:03:16;7.38;;;2.67;;
9771;SDS011;4925;52.588;13.370;2022-09-09T17:05:41;3.30;;;1.88;;
9771;SDS011;4925;52.588;13.370;2022-09-09T17:08:08;2.70;;;1.85;;
9771;SDS011;4925;52.588;13.370;2022-09-09T17:10:34;5.95;;;1.65;;
9771;SDS011;4925;52.588;13.370;2022-09-09T17:13:04;1.85;;;1.50;;
9771;SDS011;4925;52.588;13.370;2022-09-09T17:15:30;2.97;;;1.98;;
9771;SDS011;4925;52.588;13.370;2022-09-09T17:17:55;2.88;;;2.20;;
9771;SDS011;4925;52.588;13.370;2022-09-09T17:20:21;6.63;;;2.33;;
9771;SDS011;4925;52.588;13.370;2022-09-09T17:22:47;6.38;;;2.55;;
9771;SDS011;4925;52.588;13.370;2022-09-09T17:25:13;5.93;;;2.58;;
9771;SDS011;4925;52.588;13.370;2022-09-09T17:27:39;4.28;;;2.28;;
9771;SDS011;4925;52.588;13.370;2022-09-09T17:30:05;5.18;;;2.20;;
9771;SDS011;4925;52.588;13.370;2022-09-09T17:32:31;3.78;;;2.22;;
9771;SDS011;4925;52.588;13.370;2022-09-09T17:34:56;5.18;;;2.50;;
9771;SDS011;4925;52.588;13.370;2022-09-09T17:37:22;3.05;;;2.42;;
9771;SDS011;4925;52.588;13.370;2022-09-09T17:39:48;6.30;;;2.70;;
9771;SDS011;4925;52.588;13.370;2022-09-09T17:42:14;5.20;;;2.60;;
9771;SDS011;4925;52.588;13.370;2022-09-09T17:44:40;6.60;;;3.00;;